createdAt,value
2019-04-20T00:04:32.431Z,59.30
2019-04-20T00:11:23.418Z,57.00
2019-04-20T00:18:04.661Z,57.60
2019-04-20T00:25:04.287Z,59.60
2019-04-20T00:31:56.648Z,59.40
2019-04-20T00:38:35.198Z,60.60
2019-04-20T00:45:26.789Z,59.90
2019-04-20T00:59:08.339Z,62.40
2019-04-20T01:06:02.249Z,62.30
2019-04-20T01:12:32.882Z,61.30
2019-04-20T01:19:15.879Z,61.40
2019-04-20T01:26:08.639Z,62.80
2019-04-20T01:33:06.159Z,63.40
2019-04-20T01:39:43.217Z,63.60
2019-04-20T01:46:26.319Z,64.00
2019-04-20T01:53:21.485Z,63.10
2019-04-20T02:00:13.215Z,63.30
2019-04-20T02:07:06.697Z,65.00
2019-04-20T02:13:56.350Z,64.70
2019-04-20T02:20:54.457Z,63.60
2019-04-20T02:27:31.030Z,65.80
2019-04-20T02:34:47.715Z,65.50
2019-04-20T02:41:35.991Z,65.00
2019-04-20T02:48:13.954Z,65.50
2019-04-20T03:01:43.620Z,65.90
2019-04-20T03:08:22.258Z,66.40
2019-04-20T03:15:09.684Z,66.30
2019-04-20T03:22:05.069Z,65.50
2019-04-20T03:29:00.214Z,65.30
2019-04-20T03:35:59.429Z,65.80
2019-04-20T03:42:14.322Z,65.30
2019-04-20T03:49:20.279Z,66.30
2019-04-20T03:56:03.831Z,66.70
2019-04-20T04:03:08.051Z,66.40
2019-04-20T04:09:33.158Z,67.90
2019-04-20T04:16:13.374Z,68.50
2019-04-20T04:23:11.595Z,68.70
2019-04-20T04:30:01.706Z,67.80
2019-04-20T04:36:49.928Z,67.60
2019-04-20T04:43:38.985Z,67.50
2019-04-20T04:50:09.537Z,68.20
2019-04-20T04:56:50.398Z,69.00
2019-04-20T05:03:54.158Z,68.50
2019-04-20T05:10:22.571Z,67.10
2019-04-20T05:17:32.887Z,66.50
2019-04-20T05:24:26.946Z,66.30
2019-04-20T05:31:03.067Z,66.10
2019-04-20T05:38:15.927Z,66.00
2019-04-20T05:44:55.695Z,65.60
2019-04-20T05:51:40.709Z,53.90
2019-04-20T05:58:26.101Z,47.60
2019-04-20T06:05:16.047Z,46.30
2019-04-20T06:12:14.434Z,33.00
2019-04-20T06:19:06.593Z,24.70
2019-04-20T06:26:06.194Z,21.70
2019-04-20T06:33:24.531Z,20.10
2019-04-20T06:40:22.591Z,18.60
2019-04-20T06:53:45.022Z,17.30
2019-04-20T07:00:15.610Z,17.30
2019-04-20T07:07:14.623Z,17.00
2019-04-20T07:13:47.241Z,16.90
2019-04-20T07:21:07.178Z,15.80
2019-04-20T07:27:56.466Z,15.40
2019-04-20T07:34:45.570Z,15.60
2019-04-20T07:41:32.981Z,16.20
2019-04-20T07:55:19.260Z,15.60
2019-04-20T08:01:52.695Z,15.30
2019-04-20T08:08:28.258Z,15.10
2019-04-20T08:22:08.941Z,15.00
2019-04-20T08:28:54.574Z,14.40
2019-04-20T08:35:58.456Z,15.20
2019-04-20T08:42:49.971Z,15.40
2019-04-20T08:49:29.679Z,15.40
2019-04-20T08:56:03.309Z,15.50
2019-04-20T09:02:41.205Z,15.50
2019-04-20T09:10:04.933Z,15.30
2019-04-20T09:16:13.159Z,15.50
2019-04-20T09:23:16.640Z,15.70
2019-04-20T09:30:04.558Z,15.20
2019-04-20T09:36:46.791Z,15.80
2019-04-20T09:43:26.198Z,15.20
2019-04-20T09:50:27.865Z,14.80
2019-04-20T09:57:22.960Z,14.70
2019-04-20T10:03:45.167Z,15.20
2019-04-20T10:10:38.049Z,14.80
2019-04-20T10:17:17.923Z,14.80
2019-04-20T10:24:03.080Z,14.70
2019-04-20T10:30:48.408Z,15.20
2019-04-20T10:37:35.473Z,15.00
2019-04-20T10:44:20.945Z,15.70
2019-04-20T10:51:08.230Z,16.30
2019-04-20T10:57:53.382Z,18.90
2019-04-20T11:04:38.813Z,19.10
2019-04-20T11:11:27.465Z,19.80
2019-04-20T11:18:11.347Z,19.80
2019-04-20T11:24:56.591Z,20.20
2019-04-20T11:31:46.473Z,19.50
2019-04-20T11:38:28.397Z,19.30
2019-04-20T11:45:14.989Z,18.90
2019-04-20T11:52:01.408Z,18.50
2019-04-20T11:58:47.023Z,18.00
2019-04-20T12:05:38.058Z,19.60
2019-04-20T12:12:32.194Z,18.90
2019-04-20T12:19:06.358Z,18.80
2019-04-20T12:25:52.346Z,19.00
2019-04-20T12:32:42.951Z,18.20
2019-04-20T12:39:24.876Z,18.30
2019-04-20T12:46:10.062Z,18.70
2019-04-20T12:52:56.652Z,18.60
2019-04-20T12:59:44.361Z,18.80
2019-04-20T13:06:29.923Z,17.90
2019-04-20T13:13:22.751Z,17.80
2019-04-20T13:20:10.065Z,17.60
2019-04-20T13:26:55.281Z,18.40
2019-04-20T13:33:41.303Z,18.40
2019-04-20T13:40:26.315Z,18.00
2019-04-20T13:47:12.944Z,17.30
2019-04-20T13:53:59.446Z,16.90
2019-04-20T14:00:53.498Z,17.20
2019-04-20T14:07:39.715Z,16.70
2019-04-20T14:14:26.292Z,16.30
2019-04-20T14:21:12.185Z,16.60
2019-04-20T14:27:57.338Z,16.70
2019-04-20T14:34:42.980Z,15.90
2019-04-20T14:41:28.472Z,16.60
2019-04-20T14:48:13.587Z,16.20
2019-04-20T14:54:59.536Z,15.20
2019-04-20T15:01:46.717Z,15.10
2019-04-20T15:08:32.548Z,14.30
2019-04-20T15:15:18.745Z,15.70
2019-04-20T15:22:05.613Z,14.80
2019-04-20T15:28:52.415Z,14.90
2019-04-20T15:35:37.880Z,13.70
2019-04-20T15:42:23.350Z,13.90
2019-04-20T15:49:08.480Z,13.60
2019-04-20T15:55:55.619Z,13.30
2019-04-20T16:02:43.319Z,12.90
2019-04-20T16:09:30.663Z,14.00
2019-04-20T16:16:16.202Z,14.30
2019-04-20T16:23:02.694Z,14.10
2019-04-20T16:29:47.732Z,13.40
2019-04-20T16:36:32.711Z,14.30
2019-04-20T16:43:27.558Z,14.40
2019-04-20T16:50:06.872Z,15.00
2019-04-20T16:56:52.979Z,14.40
2019-04-20T17:03:49.218Z,15.40
2019-04-20T17:10:41.113Z,15.00
2019-04-20T17:17:46.750Z,15.00
2019-04-20T17:24:31.331Z,15.60
2019-04-20T17:31:18.020Z,16.10
2019-04-20T17:38:04.620Z,16.00
2019-04-20T17:45:00.651Z,16.10
2019-04-20T17:51:58.188Z,16.20
2019-04-20T17:58:27.966Z,16.50
2019-04-20T18:05:34.247Z,16.70
2019-04-20T18:12:04.568Z,16.90
2019-04-20T18:18:58.179Z,17.30
2019-04-20T18:26:00.268Z,17.80
2019-04-20T18:32:33.725Z,18.50
2019-04-20T18:39:27.606Z,19.00
2019-04-20T18:46:24.930Z,20.60
2019-04-20T18:52:52.170Z,22.20
2019-04-20T18:59:43.782Z,21.70
2019-04-20T19:06:23.949Z,23.20
2019-04-20T19:13:20.240Z,23.50
2019-04-20T19:20:14.116Z,23.80
2019-04-20T19:27:03.549Z,24.50
2019-04-20T19:34:09.349Z,26.10
2019-04-20T19:40:45.667Z,27.80
2019-04-20T19:47:46.820Z,27.60
2019-04-20T19:54:30.255Z,28.80
2019-04-20T20:00:57.699Z,28.60
2019-04-20T20:07:45.718Z,32.20
2019-04-20T20:14:35.366Z,30.40
2019-04-20T20:21:23.756Z,31.40
2019-04-20T20:28:17.092Z,30.90
2019-04-20T20:34:56.080Z,33.50
2019-04-20T20:41:49.089Z,33.40
2019-04-20T20:48:35.661Z,32.70
2019-04-20T20:55:24.648Z,35.70
2019-04-20T21:02:06.739Z,36.80
2019-04-20T21:08:47.338Z,40.20
2019-04-20T21:15:30.268Z,43.80
2019-04-20T21:22:33.621Z,44.40
2019-04-20T21:29:03.779Z,45.10
2019-04-20T21:35:51.745Z,45.40
2019-04-20T21:42:44.341Z,45.60
2019-04-20T21:49:37.644Z,45.40
2019-04-20T21:56:10.091Z,47.00
2019-04-20T22:03:01.743Z,48.80
2019-04-20T22:09:47.668Z,48.10
2019-04-20T22:16:35.303Z,47.70
2019-04-20T22:23:34.382Z,48.30
2019-04-20T22:30:02.179Z,49.90
2019-04-20T22:36:50.095Z,50.60
2019-04-20T22:43:38.232Z,51.00
2019-04-20T22:50:33.983Z,52.80
2019-04-20T22:57:19.501Z,54.20
2019-04-20T23:03:54.890Z,54.50
2019-04-20T23:10:44.793Z,53.50
2019-04-20T23:17:33.492Z,53.70
2019-04-20T23:24:15.308Z,56.90
2019-04-20T23:31:06.469Z,55.20
2019-04-20T23:37:46.603Z,55.70
2019-04-20T23:44:40.129Z,55.00
2019-04-20T23:51:49.107Z,54.90
2019-04-20T23:58:14.731Z,53.50
